createdAt,value
2022-12-09T00:04:37.357Z,9.90
2022-12-09T00:09:41.265Z,9.96
2022-12-09T00:14:44.792Z,9.88
2022-12-09T00:19:48.334Z,10.11
2022-12-09T00:24:51.359Z,10.21
2022-12-09T00:29:54.480Z,10.13
2022-12-09T00:34:57.861Z,10.07
2022-12-09T00:40:01.041Z,10.30
2022-12-09T00:45:05.125Z,10.47
2022-12-09T00:50:08.981Z,10.37
2022-12-09T00:55:13.321Z,10.13
2022-12-09T01:00:16.791Z,10.21
2022-12-09T01:05:20.588Z,10.24
2022-12-09T01:10:24.246Z,10.23
2022-12-09T01:15:27.396Z,10.25
2022-12-09T01:20:31.016Z,10.33
2022-12-09T01:25:35.427Z,10.38
2022-12-09T01:30:39.744Z,10.46
2022-12-09T01:35:44.038Z,10.57
2022-12-09T01:40:47.689Z,10.45
2022-12-09T01:45:51.843Z,10.36
2022-12-09T01:51:00.768Z,10.33
2022-12-09T01:56:11.420Z,10.45
2022-12-09T02:01:16.560Z,10.42
2022-12-09T02:06:19.715Z,10.64
2022-12-09T02:11:30.120Z,10.82
2022-12-09T02:16:42.419Z,10.89
2022-12-09T02:21:59.396Z,11.05
2022-12-09T02:27:03.632Z,11.09
2022-12-09T02:32:32.157Z,11.11
2022-12-09T02:37:38.498Z,10.94
2022-12-09T02:42:46.914Z,11.07
2022-12-09T02:47:52.197Z,10.94
2022-12-09T02:53:02.664Z,11.10
2022-12-09T02:58:07.368Z,11.10
2022-12-09T03:03:16.841Z,11.11
2022-12-09T03:08:48.291Z,11.04
2022-12-09T03:14:18.635Z,11.40
2022-12-09T03:19:42.776Z,11.38
2022-12-09T03:25:00.602Z,11.58
2022-12-09T03:30:06.738Z,11.76
2022-12-09T03:35:20.014Z,12.21
2022-12-09T03:40:30.027Z,12.05
2022-12-09T03:45:34.660Z,12.23
2022-12-09T03:51:01.140Z,12.19
2022-12-09T03:56:20.373Z,11.69
2022-12-09T04:01:26.123Z,11.54
2022-12-09T04:06:29.921Z,11.31
2022-12-09T04:11:34.392Z,10.95
2022-12-09T04:16:38.705Z,10.64
2022-12-09T04:21:43.345Z,10.42
2022-12-09T04:26:47.403Z,10.59
2022-12-09T04:31:51.064Z,10.54
2022-12-09T04:36:54.940Z,10.52
2022-12-09T04:41:58.566Z,10.42
2022-12-09T04:47:02.012Z,10.68
2022-12-09T04:52:06.442Z,10.72
2022-12-09T04:57:09.820Z,10.77
2022-12-09T05:02:13.563Z,10.78
2022-12-09T05:07:17.192Z,10.92
2022-12-09T05:12:21.518Z,10.88
2022-12-09T05:17:25.472Z,10.83
2022-12-09T05:22:29.426Z,10.80
2022-12-09T05:27:33.403Z,10.79
2022-12-09T05:32:37.017Z,10.88
2022-12-09T05:37:40.663Z,11.07
2022-12-09T05:42:44.053Z,11.47
2022-12-09T05:47:47.815Z,12.10
2022-12-09T05:52:51.300Z,12.61
2022-12-09T05:57:55.110Z,12.90
2022-12-09T06:02:58.556Z,12.73
2022-12-09T06:08:06.836Z,13.06
2022-12-09T06:13:11.184Z,13.22
2022-12-09T06:18:15.238Z,13.28
2022-12-09T06:23:18.942Z,13.55
2022-12-09T06:28:22.153Z,13.42
2022-12-09T06:33:52.888Z,13.66
2022-12-09T06:38:49.561Z,13.68
2022-12-09T06:43:53.190Z,14.02
2022-12-09T06:48:57.017Z,13.83
2022-12-09T06:54:01.099Z,14.12
2022-12-09T06:59:10.019Z,14.23
2022-12-09T07:04:15.677Z,14.54
2022-12-09T07:09:21.274Z,14.52
2022-12-09T07:14:25.801Z,14.23
2022-12-09T07:19:30.707Z,14.02
2022-12-09T07:24:34.636Z,13.80
2022-12-09T07:29:38.518Z,13.92
2022-12-09T07:34:43.214Z,13.81
2022-12-09T07:39:46.695Z,13.67
2022-12-09T07:44:51.025Z,13.72
2022-12-09T07:49:54.609Z,14.08
2022-12-09T07:55:00.007Z,15.01
2022-12-09T08:00:05.563Z,17.68
2022-12-09T08:05:16.466Z,18.12
2022-12-09T08:10:20.677Z,17.16
2022-12-09T08:15:23.902Z,16.40
2022-12-09T08:20:29.444Z,16.46
2022-12-09T08:25:33.932Z,15.85
2022-12-09T08:30:37.893Z,15.77
2022-12-09T08:35:42.536Z,15.15
2022-12-09T08:40:46.313Z,15.35
2022-12-09T08:45:49.497Z,16.28
2022-12-09T08:50:55.525Z,16.12
2022-12-09T08:56:00.636Z,16.48
2022-12-09T09:01:04.754Z,16.63
2022-12-09T09:06:10.761Z,15.88
2022-12-09T09:11:17.798Z,16.72
2022-12-09T09:16:22.620Z,17.40
2022-12-09T09:21:29.346Z,17.83
2022-12-09T09:26:33.151Z,18.48
2022-12-09T09:31:37.448Z,18.64
2022-12-09T09:36:41.403Z,18.22
2022-12-09T09:41:52.653Z,18.67
2022-12-09T09:46:58.424Z,18.66
2022-12-09T09:52:11.007Z,18.69
2022-12-09T09:57:41.142Z,17.87
2022-12-09T10:03:05.381Z,17.31
2022-12-09T10:08:36.743Z,17.70
2022-12-09T10:14:35.041Z,17.67
2022-12-09T10:19:50.251Z,17.40
2022-12-09T10:24:59.051Z,17.10
2022-12-09T10:30:09.542Z,17.12
2022-12-09T10:35:20.753Z,17.28
2022-12-09T10:40:53.735Z,17.31
2022-12-09T10:51:32.766Z,16.84
2022-12-09T10:56:40.696Z,16.98
2022-12-09T11:01:56.678Z,17.21
2022-12-09T11:07:18.430Z,17.06
2022-12-09T11:12:32.133Z,16.58
2022-12-09T11:17:56.083Z,16.29
2022-12-09T11:23:05.357Z,15.98
2022-12-09T11:28:18.072Z,15.84
2022-12-09T11:33:25.277Z,15.90
2022-12-09T11:38:33.932Z,15.61
2022-12-09T11:43:37.448Z,15.58
2022-12-09T11:49:17.607Z,15.29
2022-12-09T11:54:41.098Z,15.48
2022-12-09T11:59:55.175Z,15.69
2022-12-09T12:05:11.316Z,15.58
2022-12-09T12:10:35.783Z,15.83
2022-12-09T12:15:49.955Z,15.56
2022-12-09T12:21:19.036Z,15.64
2022-12-09T12:26:26.868Z,15.59
2022-12-09T12:31:55.924Z,15.70
2022-12-09T12:37:26.846Z,15.93
2022-12-09T12:42:36.273Z,15.69
2022-12-09T12:47:49.739Z,15.32
2022-12-09T12:53:08.991Z,15.02
2022-12-09T12:58:24.220Z,14.77
2022-12-09T13:03:39.587Z,14.37
2022-12-09T13:09:28.205Z,14.47
2022-12-09T13:14:40.297Z,14.49
2022-12-09T13:19:48.165Z,14.50
2022-12-09T13:25:12.031Z,14.59
2022-12-09T13:30:34.348Z,14.70
2022-12-09T13:35:48.541Z,14.78
2022-12-09T13:40:52.129Z,14.59
2022-12-09T13:45:58.888Z,14.64
2022-12-09T13:51:03.878Z,14.82
2022-12-09T13:56:31.407Z,14.66
2022-12-09T14:01:42.657Z,14.70
2022-12-09T14:06:46.087Z,14.60
2022-12-09T14:11:52.671Z,14.72
2022-12-09T14:16:58.078Z,14.77
2022-12-09T14:22:20.433Z,14.65
2022-12-09T14:27:27.673Z,14.73
2022-12-09T14:32:37.818Z,14.69
2022-12-09T14:38:07.417Z,14.46
2022-12-09T14:43:16.519Z,14.33
2022-12-09T14:48:30.165Z,14.30
2022-12-09T14:53:36.520Z,14.21
2022-12-09T14:58:40.487Z,14.32
2022-12-09T15:03:56.552Z,14.05
2022-12-09T15:09:00.238Z,14.05
2022-12-09T15:14:29.382Z,13.73
2022-12-09T15:19:59.850Z,13.74
2022-12-09T15:24:57.789Z,13.67
2022-12-09T15:30:01.240Z,13.61
2022-12-09T15:35:22.601Z,13.54
2022-12-09T15:40:29.478Z,13.59
2022-12-09T15:45:34.158Z,13.58
2022-12-09T15:50:44.013Z,13.41
2022-12-09T15:55:52.813Z,13.58
2022-12-09T16:00:57.132Z,13.44
2022-12-09T16:06:07.649Z,13.43
2022-12-09T16:11:11.774Z,13.40
2022-12-09T16:16:47.746Z,13.33
2022-12-09T16:21:55.663Z,13.13
2022-12-09T16:27:00.710Z,13.48
2022-12-09T16:32:24.386Z,13.27
2022-12-09T16:37:50.903Z,13.16
2022-12-09T16:42:56.527Z,13.34
2022-12-09T16:48:00.937Z,13.11
2022-12-09T16:53:08.082Z,13.10
2022-12-09T16:58:12.503Z,13.21
2022-12-09T17:03:28.143Z,13.16
2022-12-09T17:08:33.100Z,13.19
2022-12-09T17:13:36.735Z,13.09
2022-12-09T17:18:40.940Z,13.16
2022-12-09T17:23:45.080Z,13.24
2022-12-09T17:28:51.238Z,13.31
2022-12-09T17:33:57.157Z,12.97
2022-12-09T17:39:04.902Z,12.94
2022-12-09T17:44:08.344Z,12.85
2022-12-09T17:49:11.512Z,12.78
2022-12-09T17:54:14.954Z,12.70
2022-12-09T17:59:18.653Z,12.69
2022-12-09T18:04:21.907Z,12.76
2022-12-09T18:09:25.138Z,13.05
2022-12-09T18:14:28.851Z,13.05
2022-12-09T18:19:35.384Z,13.34
2022-12-09T18:24:39.136Z,13.38
2022-12-09T18:29:42.562Z,13.77
2022-12-09T18:34:47.322Z,13.89
2022-12-09T18:39:51.410Z,13.80
2022-12-09T18:44:55.384Z,13.68
2022-12-09T18:49:58.898Z,13.71
2022-12-09T18:55:02.486Z,13.61
2022-12-09T19:00:06.914Z,13.77
2022-12-09T19:05:10.593Z,13.50
2022-12-09T19:10:14.445Z,13.01
2022-12-09T19:15:18.051Z,12.54
2022-12-09T19:20:21.650Z,12.50
2022-12-09T19:25:25.606Z,12.52
2022-12-09T19:30:29.803Z,12.27
2022-12-09T19:35:33.299Z,12.45
2022-12-09T19:40:37.862Z,12.40
2022-12-09T19:45:40.903Z,12.71
2022-12-09T19:50:44.031Z,12.77
2022-12-09T19:55:49.325Z,13.06
2022-12-09T20:00:52.861Z,13.16
2022-12-09T20:05:56.621Z,13.39
2022-12-09T20:11:00.926Z,13.42
2022-12-09T20:16:06.407Z,13.79
2022-12-09T20:21:12.398Z,13.63
2022-12-09T20:26:19.808Z,13.85
2022-12-09T20:31:28.964Z,13.70
2022-12-09T20:36:35.205Z,13.60
2022-12-09T20:41:39.607Z,13.60
2022-12-09T20:46:47.931Z,13.63
2022-12-09T20:51:51.037Z,13.51
2022-12-09T20:56:54.892Z,13.57
2022-12-09T21:01:58.842Z,13.65
2022-12-09T21:07:02.741Z,13.70
2022-12-09T21:12:06.561Z,13.89
2022-12-09T21:17:10.448Z,13.55
2022-12-09T21:22:14.136Z,13.77
2022-12-09T21:27:17.242Z,13.78
2022-12-09T21:32:20.315Z,13.51
2022-12-09T21:37:23.409Z,13.52
2022-12-09T21:42:26.978Z,13.35
2022-12-09T21:47:30.083Z,13.33
2022-12-09T21:52:33.579Z,13.27
2022-12-09T21:57:37.421Z,13.50
2022-12-09T22:02:43.258Z,13.37
2022-12-09T22:07:50.066Z,13.73
2022-12-09T22:12:54.978Z,13.48
2022-12-09T22:17:58.695Z,13.76
2022-12-09T22:23:02.074Z,13.62
2022-12-09T22:28:05.321Z,13.74
2022-12-09T22:33:09.122Z,13.82
2022-12-09T22:38:14.753Z,14.16
2022-12-09T22:43:18.074Z,14.18
2022-12-09T22:48:21.584Z,14.27
2022-12-09T22:53:24.635Z,14.43
2022-12-09T22:58:28.494Z,14.48
2022-12-09T23:03:32.000Z,14.71
2022-12-09T23:08:36.362Z,14.29
2022-12-09T23:13:41.445Z,14.40
2022-12-09T23:18:46.299Z,14.28
2022-12-09T23:23:53.088Z,14.31
2022-12-09T23:28:58.524Z,14.77
2022-12-09T23:34:03.866Z,14.87
2022-12-09T23:39:11.375Z,15.03
2022-12-09T23:44:17.095Z,15.30
2022-12-09T23:49:20.166Z,15.41
2022-12-09T23:54:23.658Z,15.17
2022-12-09T23:59:27.125Z,15.24
